Time;durP1;ratioP1;P1;durP2;ratioP2;P2;SDS_P1;SDS_P2;PMS_P1;PMS_P2;Temp;Humidity;BMP_temperature;BMP_pressure;BME280_temperature;BME280_humidity;BME280_pressure;Samples;Min_cycle;Max_cycle;Signal;HPM_P1;HPM_P2
2022/08/03 00:02:46;;;;;;;2.97;2.60;;;;;;;20.40;98.02;101269.19;6296026;28;20060;-75
2022/08/03 00:05:49;;;;;;;4.03;2.70;;;;;;;20.38;99.03;101266.63;6295924;28;20048;-75
2022/08/03 00:08:50;;;;;;;3.10;2.63;;;;;;;20.35;98.53;101271.38;6296048;28;20052;-75
2022/08/03 00:11:51;;;;;;;4.18;3.00;;;;;;;20.30;97.65;101258.44;6295602;28;20055;-75
2022/08/03 00:14:53;;;;;;;3.90;3.22;;;;;;;20.26;97.80;101265.03;6295772;28;20053;-75
2022/08/03 00:17:54;;;;;;;3.22;2.35;;;;;;;20.24;99.57;101261.63;6295799;28;20059;-74
2022/08/03 00:20:57;;;;;;;4.53;2.95;;;;;;;20.21;100.00;101253.88;6295569;28;20040;-75
2022/08/03 00:23:58;;;;;;;3.42;2.70;;;;;;;20.19;100.00;101256.69;6295559;28;20056;-75
2022/08/03 00:26:59;;;;;;;5.28;2.80;;;;;;;20.16;100.00;101256.09;6295977;28;20056;-75
2022/08/03 00:30:01;;;;;;;3.60;3.05;;;;;;;20.13;100.00;101264.41;6298042;28;20504;-75
2022/08/03 00:33:02;;;;;;;3.35;2.70;;;;;;;20.10;100.00;101267.31;6300368;28;20056;-74
2022/08/03 00:36:05;;;;;;;4.13;3.05;;;;;;;20.09;100.00;101261.13;6300080;28;20063;-75
2022/08/03 00:39:07;;;;;;;5.32;3.15;;;;;;;20.06;100.00;101261.38;6300215;28;20048;-75
2022/08/03 00:42:08;;;;;;;3.50;2.92;;;;;;;20.01;100.00;101261.78;6300029;28;20048;-76
2022/08/03 00:45:10;;;;;;;6.38;2.75;;;;;;;19.97;100.00;101255.00;6300003;28;20056;-76
2022/08/03 00:48:12;;;;;;;5.07;3.35;;;;;;;19.96;100.00;101261.31;6299968;28;20385;-75
2022/08/03 00:51:15;;;;;;;4.03;2.50;;;;;;;19.95;100.00;101256.13;6299826;28;20055;-75
2022/08/03 00:54:16;;;;;;;4.18;2.83;;;;;;;19.93;100.00;101263.41;6299449;28;20049;-75
2022/08/03 00:57:17;;;;;;;4.50;2.80;;;;;;;19.88;100.00;101253.13;6299854;28;20055;-75
2022/08/03 01:00:21;;;;;;;3.70;3.03;;;;;;;19.85;100.00;101252.53;6299577;28;20049;-75
2022/08/03 01:03:23;;;;;;;4.00;2.90;;;;;;;19.81;100.00;101248.47;6299744;28;20049;-75
2022/08/03 01:06:34;;;;;;;3.65;2.83;;;;;;;19.79;100.00;101247.72;6299585;28;20055;-75
2022/08/03 01:09:46;;;;;;;3.53;2.95;;;;;;;19.73;100.00;101247.25;6299559;28;20052;-75
2022/08/03 01:12:57;;;;;;;4.32;3.17;;;;;;;19.72;100.00;101242.06;6299770;28;20051;-75
2022/08/03 01:16:02;;;;;;;3.92;2.72;;;;;;;19.69;100.00;101247.66;6299128;28;20393;-75
2022/08/03 01:19:27;;;;;;;4.03;3.20;;;;;;;19.65;100.00;101241.72;6299443;28;20048;-75
2022/08/03 01:23:00;;;;;;;3.97;2.85;;;;;;;19.61;100.00;101242.09;6298944;28;20052;-75
2022/08/03 01:26:33;;;;;;;5.20;3.50;;;;;;;19.56;100.00;101242.47;6299218;28;20048;-75
2022/08/03 01:29:58;;;;;;;4.47;3.15;;;;;;;19.55;100.00;101245.25;6299284;28;20055;-75
2022/08/03 01:33:03;;;;;;;4.20;3.22;;;;;;;19.51;100.00;101242.84;6298899;28;20052;-75
2022/08/03 01:36:09;;;;;;;3.55;2.88;;;;;;;19.51;100.00;101239.34;6298960;28;20063;-75
2022/08/03 01:39:11;;;;;;;5.82;3.00;;;;;;;19.49;100.00;101250.13;6298456;28;20396;-76
2022/08/03 01:42:15;;;;;;;3.78;3.10;;;;;;;19.48;100.00;101240.44;6298701;28;20052;-75
2022/08/03 01:45:18;;;;;;;3.42;2.97;;;;;;;19.46;100.00;101237.06;6298348;28;20048;-75
2022/08/03 01:48:20;;;;;;;4.15;3.10;;;;;;;19.45;100.00;101242.53;6298743;28;20048;-76
2022/08/03 01:51:23;;;;;;;3.22;2.83;;;;;;;19.44;100.00;101235.47;6298240;28;20408;-75
2022/08/03 01:54:26;;;;;;;5.03;3.10;;;;;;;19.42;100.00;101235.59;6298523;28;20049;-75
2022/08/03 01:57:30;;;;;;;5.75;3.15;;;;;;;19.39;100.00;101235.84;6298381;28;20051;-75
2022/08/03 02:00:35;;;;;;;3.67;3.20;;;;;;;19.37;100.00;101231.63;6298217;28;20044;-75
2022/08/03 02:03:38;;;;;;;4.07;3.03;;;;;;;19.35;100.00;101236.22;6298178;28;20415;-75
2022/08/03 02:06:40;;;;;;;4.15;2.90;;;;;;;19.32;100.00;101236.50;6297818;28;20671;-75
2022/08/03 02:09:44;;;;;;;3.65;2.78;;;;;;;19.26;100.00;101233.38;6298040;28;20051;-76
2022/08/03 02:12:47;;;;;;;3.42;2.67;;;;;;;19.25;100.00;101237.00;6305791;28;20048;-75
2022/08/03 02:15:51;;;;;;;8.50;3.25;;;;;;;19.23;100.00;101230.94;6320143;28;20393;-75
2022/08/03 02:18:54;;;;;;;6.38;3.20;;;;;;;19.20;100.00;101230.34;6312326;28;20053;-75
2022/08/03 02:21:58;;;;;;;3.00;2.70;;;;;;;19.19;100.00;101232.16;6314178;28;20044;-75
2022/08/03 02:24:59;;;;;;;3.65;2.63;;;;;;;19.16;100.00;101231.56;6322593;28;20055;-75
2022/08/03 02:28:08;;;;;;;4.57;3.03;;;;;;;19.15;100.00;101229.88;6323033;28;20040;-75
2022/08/03 02:31:15;;;;;;;5.25;2.78;;;;;;;19.13;100.00;101223.84;6320945;28;20048;-75
2022/08/03 02:34:18;;;;;;;3.63;2.78;;;;;;;19.10;100.00;101219.59;6300356;28;20415;-75
2022/08/03 02:37:23;;;;;;;5.82;3.10;;;;;;;19.07;100.00;101217.19;6297365;28;20487;-75
2022/08/03 02:40:27;;;;;;;3.47;2.50;;;;;;;19.06;100.00;101225.31;6297324;28;20055;-75
2022/08/03 02:43:31;;;;;;;3.78;2.90;;;;;;;19.04;100.00;101221.94;6297134;28;20051;-75
2022/08/03 02:46:38;;;;;;;3.53;2.90;;;;;;;19.03;100.00;101215.75;6297252;28;20049;-75
2022/08/03 02:49:41;;;;;;;3.42;2.90;;;;;;;19.01;100.00;101218.53;6287035;28;20501;-75
2022/08/03 02:52:46;;;;;;;4.80;3.17;;;;;;;18.96;100.00;101218.06;6271589;28;20048;-75
2022/08/03 02:55:49;;;;;;;3.13;2.72;;;;;;;18.96;100.00;101217.22;6271924;28;20053;-75
2022/08/03 02:58:51;;;;;;;5.55;3.65;;;;;;;18.94;100.00;101216.47;6298948;28;20051;-75
2022/08/03 03:01:55;;;;;;;2.92;2.42;;;;;;;18.93;100.00;101217.47;6296570;28;20048;-75
2022/08/03 03:04:56;;;;;;;4.93;3.28;;;;;;;18.91;100.00;101214.94;6296768;28;20048;-75
2022/08/03 03:07:58;;;;;;;5.88;2.85;;;;;;;18.89;100.00;101210.69;6296744;28;20052;-75
2022/08/03 03:11:01;;;;;;;3.40;2.65;;;;;;;18.86;100.00;101209.13;6296779;28;20048;-75
2022/08/03 03:14:02;;;;;;;4.35;3.05;;;;;;;18.85;100.00;101210.13;6296560;28;20048;-76
2022/08/03 03:17:06;;;;;;;4.57;2.92;;;;;;;18.83;100.00;101217.38;6296521;28;20516;-75
2022/08/03 03:20:09;;;;;;;3.78;3.03;;;;;;;18.79;100.00;101215.91;6296297;28;20044;-75
2022/08/03 03:23:11;;;;;;;4.53;3.13;;;;;;;18.76;100.00;101213.50;6296709;28;20044;-75
2022/08/03 03:26:14;;;;;;;5.22;3.20;;;;;;;18.74;100.00;101218.09;6295842;28;20051;-75
2022/08/03 03:29:16;;;;;;;5.47;2.90;;;;;;;18.71;100.00;101221.88;6292000;28;20060;-75
2022/08/03 03:32:19;;;;;;;3.80;3.15;;;;;;;18.71;100.00;101223.66;6293417;28;20040;-75
2022/08/03 03:35:21;;;;;;;6.40;2.97;;;;;;;18.68;100.00;101227.41;6295774;28;20488;-75
2022/08/03 03:38:22;;;;;;;5.35;3.35;;;;;;;18.66;100.00;101226.66;6296389;28;20056;-75
2022/08/03 03:41:24;;;;;;;3.75;3.03;;;;;;;18.64;100.00;101225.94;6296038;28;20040;-74
2022/08/03 03:44:27;;;;;;;4.05;2.95;;;;;;;18.64;100.00;101233.09;6297088;28;20053;-75
2022/08/03 03:47:30;;;;;;;4.63;3.17;;;;;;;18.63;100.00;101224.25;6296295;28;20050;-75
2022/08/03 03:50:32;;;;;;;4.60;3.25;;;;;;;18.61;100.00;101228.84;6296111;28;20056;-75
2022/08/03 03:53:33;;;;;;;4.03;3.00;;;;;;;18.59;100.00;101222.81;6296026;28;20053;-75
2022/08/03 03:56:35;;;;;;;4.47;3.00;;;;;;;18.56;100.00;101224.88;6296067;28;20063;-75
2022/08/03 03:59:37;;;;;;;4.57;3.15;;;;;;;18.56;100.00;101227.53;6295944;28;20075;-75
2022/08/03 04:02:40;;;;;;;4.32;3.15;;;;;;;18.52;100.00;101219.78;6296156;28;20385;-74
2022/08/03 04:12:24;;;;;;;5.80;2.40;;;;;;;18.51;100.00;101219.91;6300792;28;19920;-75
2022/08/03 04:15:28;;;;;;;4.90;3.28;;;;;;;18.51;100.00;101230.53;6300669;28;20048;-75
2022/08/03 04:18:33;;;;;;;3.55;2.80;;;;;;;18.49;100.00;101232.50;6300608;28;20056;-75
2022/08/03 04:21:40;;;;;;;5.97;2.72;;;;;;;18.49;100.00;101227.19;6300567;28;20071;-75
2022/08/03 04:24:46;;;;;;;3.85;3.05;;;;;;;18.50;100.00;101229.72;6300325;28;20045;-75
2022/08/03 04:27:51;;;;;;;3.78;3.00;;;;;;;18.50;100.00;101227.03;6300693;28;20048;-74
2022/08/03 04:30:53;;;;;;;4.38;3.20;;;;;;;18.51;100.00;101227.88;6300032;28;20045;-75
2022/08/03 04:33:57;;;;;;;4.47;3.15;;;;;;;18.52;100.00;101232.25;6300427;28;20071;-74
2022/08/03 04:37:01;;;;;;;4.55;3.55;;;;;;;18.51;100.00;101234.06;6300304;28;20466;-75
2022/08/03 04:40:05;;;;;;;7.88;3.45;;;;;;;18.55;100.00;101231.16;6299904;28;20049;-75
2022/08/03 04:43:08;;;;;;;4.30;2.90;;;;;;;18.57;100.00;101240.69;6300251;28;20428;-74
2022/08/03 04:46:10;;;;;;;3.05;2.45;;;;;;;18.58;100.00;101236.25;6299688;28;20394;-75
2022/08/03 04:49:13;;;;;;;4.25;2.67;;;;;;;18.62;100.00;101229.69;6300015;28;20048;-74
2022/08/03 04:52:15;;;;;;;4.80;2.83;;;;;;;18.63;100.00;101231.41;6299890;28;20055;-74
2022/08/03 04:55:25;;;;;;;4.28;2.88;;;;;;;18.67;100.00;101233.69;6299688;28;20060;-74
2022/08/03 04:58:27;;;;;;;5.10;2.70;;;;;;;18.68;100.00;101229.22;6299786;28;20058;-74
2022/08/03 05:01:28;;;;;;;4.10;2.78;;;;;;;18.70;100.00;101235.28;6299577;28;20048;-75
2022/08/03 05:04:31;;;;;;;3.58;2.42;;;;;;;18.72;100.00;101236.03;6299375;28;20051;-74
2022/08/03 05:07:32;;;;;;;3.20;2.78;;;;;;;18.76;100.00;101237.47;6299769;28;20052;-74
2022/08/03 05:10:33;;;;;;;2.97;2.28;;;;;;;18.85;100.00;101241.19;6299486;28;20052;-75
2022/08/03 05:13:35;;;;;;;2.95;2.20;;;;;;;18.90;100.00;101239.03;6299582;28;20450;-74
2022/08/03 05:16:36;;;;;;;3.22;2.42;;;;;;;18.96;100.00;101246.53;6298173;28;20060;-74
2022/08/03 05:19:39;;;;;;;3.80;2.63;;;;;;;19.04;100.00;101249.41;6299009;28;20052;-75
2022/08/03 05:22:40;;;;;;;3.38;2.33;;;;;;;19.09;100.00;101249.88;6299129;28;20064;-74
2022/08/03 05:25:41;;;;;;;2.70;2.00;;;;;;;19.14;100.00;101249.50;6298571;28;20052;-74
2022/08/03 05:28:43;;;;;;;3.22;2.03;;;;;;;19.18;100.00;101241.16;6299094;28;20063;-74
2022/08/03 05:31:44;;;;;;;3.25;2.42;;;;;;;19.22;100.00;101245.25;6297763;28;20064;-74
2022/08/03 05:34:47;;;;;;;2.97;2.10;;;;;;;19.30;100.00;101243.75;6297477;28;20052;-74
2022/08/03 05:37:48;;;;;;;2.75;2.00;;;;;;;19.31;100.00;101245.47;6297293;28;20052;-75
2022/08/03 05:40:49;;;;;;;3.75;2.05;;;;;;;19.35;100.00;101238.91;6297316;28;20053;-75
2022/08/03 05:43:52;;;;;;;2.85;2.25;;;;;;;19.42;100.00;101242.75;6296884;28;20125;-75
2022/08/03 05:46:53;;;;;;;3.25;2.00;;;;;;;19.46;100.00;101242.38;6296970;28;20427;-74
2022/08/03 05:49:57;;;;;;;2.78;2.30;;;;;;;19.49;100.00;101233.28;6296874;28;20056;-74
2022/08/03 05:52:59;;;;;;;3.33;2.00;;;;;;;19.55;100.00;101230.09;6296928;28;20103;-75
2022/08/03 05:56:00;;;;;;;2.83;1.92;;;;;;;19.67;100.00;101233.63;6296751;28;20511;-74
2022/08/03 05:59:02;;;;;;;3.08;2.05;;;;;;;19.82;100.00;101234.13;6294014;28;20052;-74
2022/08/03 06:02:04;;;;;;;4.45;1.95;;;;;;;19.92;100.00;101237.72;6296609;28;20044;-76
2022/08/03 06:05:08;;;;;;;2.72;1.80;;;;;;;19.98;100.00;101231.84;6296340;28;20503;-74
2022/08/03 06:08:09;;;;;;;2.10;1.77;;;;;;;20.01;100.00;101245.78;6296822;28;20063;-74
2022/08/03 06:11:11;;;;;;;3.20;2.03;;;;;;;20.08;100.00;101240.78;6296254;28;20040;-74
2022/08/03 06:14:12;;;;;;;2.08;1.75;;;;;;;20.23;97.95;101236.78;6296277;28;20051;-74
2022/08/03 06:17:13;;;;;;;2.03;1.73;;;;;;;20.35;97.61;101239.34;6296268;28;20852;-74
2022/08/03 06:20:18;;;;;;;2.05;1.35;;;;;;;20.39;97.70;101232.75;6296883;28;20048;-74
2022/08/03 06:23:20;;;;;;;1.92;1.65;;;;;;;20.52;95.83;101236.09;6296157;28;20036;-75
2022/08/03 06:26:23;;;;;;;1.60;1.50;;;;;;;20.55;96.38;101238.50;6296258;28;20078;-74
2022/08/03 06:29:25;;;;;;;3.60;1.85;;;;;;;20.64;96.08;101243.03;6296507;28;20044;-75
2022/08/03 06:32:26;;;;;;;6.22;1.70;;;;;;;20.71;97.24;101235.31;6297147;28;20636;-74
2022/08/03 06:35:29;;;;;;;2.20;1.90;;;;;;;20.78;95.85;101236.47;6297866;28;20537;-74
2022/08/03 06:38:30;;;;;;;4.45;1.58;;;;;;;20.85;95.75;101242.97;6297419;28;20044;-74
2022/08/03 06:41:32;;;;;;;2.22;1.52;;;;;;;20.90;94.88;101234.56;6297615;28;20393;-74
2022/08/03 06:44:33;;;;;;;9.73;2.40;;;;;;;20.96;94.50;101242.00;6297275;28;20059;-74
2022/08/03 06:47:34;;;;;;;2.08;1.35;;;;;;;21.05;94.82;101240.34;6297236;28;20049;-75
2022/08/03 06:50:40;;;;;;;2.65;1.52;;;;;;;21.13;94.10;101248.53;6296923;28;20041;-74
2022/08/03 06:53:41;;;;;;;2.60;1.95;;;;;;;21.13;95.90;101254.72;6296922;28;20408;-75
2022/08/03 06:56:42;;;;;;;3.13;1.70;;;;;;;21.19;94.20;101250.63;6296768;28;20049;-75
2022/08/03 06:59:44;;;;;;;2.03;1.83;;;;;;;21.25;94.03;101253.59;6297046;28;20633;-72
2022/08/03 07:02:45;;;;;;;1.75;1.42;;;;;;;21.32;94.61;101259.28;6296946;28;20048;-73
2022/08/03 07:05:48;;;;;;;1.83;1.25;;;;;;;21.42;93.61;101256.59;6296646;28;20052;-73
2022/08/03 07:08:49;;;;;;;2.90;1.45;;;;;;;21.57;90.52;101252.50;6296712;28;20557;-73
2022/08/03 07:11:51;;;;;;;3.00;1.77;;;;;;;21.68;89.40;101254.22;6296696;28;20053;-73
2022/08/03 07:14:52;;;;;;;2.38;1.60;;;;;;;21.75;90.30;101263.34;6296701;28;20411;-72
2022/08/03 07:17:54;;;;;;;3.15;1.25;;;;;;;21.80;88.41;101261.09;6296674;28;20048;-73
2022/08/03 07:20:56;;;;;;;2.08;1.25;;;;;;;21.86;87.71;101263.22;6289433;28;20057;-72
2022/08/03 07:23:58;;;;;;;2.03;1.30;;;;;;;21.90;88.23;101267.31;6308196;28;20053;-73
2022/08/03 07:26:59;;;;;;;1.30;1.10;;;;;;;21.96;87.12;101265.88;6321583;28;20453;-72
2022/08/03 07:30:00;;;;;;;2.20;1.05;;;;;;;22.12;86.18;101266.19;6279224;28;20052;-72
2022/08/03 07:33:02;;;;;;;4.03;1.58;;;;;;;22.27;85.55;101263.88;6271666;28;20055;-73
2022/08/03 07:36:05;;;;;;;1.42;1.05;;;;;;;22.23;86.75;101266.00;6271422;28;20049;-73
2022/08/03 07:39:06;;;;;;;1.95;1.25;;;;;;;22.35;86.91;101266.69;6294998;28;20051;-73
2022/08/03 07:42:08;;;;;;;1.55;1.10;;;;;;;22.59;83.28;101262.66;6296407;28;20049;-73
2022/08/03 07:45:10;;;;;;;2.00;1.20;;;;;;;22.71;83.77;101269.47;6295936;28;20049;-74
2022/08/03 07:48:11;;;;;;;1.35;1.17;;;;;;;22.89;80.51;101265.09;6296409;28;20048;-73
2022/08/03 07:51:14;;;;;;;3.05;1.10;;;;;;;23.01;79.77;101258.50;6295954;28;20048;-73
2022/08/03 07:54:15;;;;;;;2.25;1.50;;;;;;;23.16;78.29;101268.72;6287914;28;20052;-72
2022/08/03 07:57:16;;;;;;;4.10;1.50;;;;;;;23.13;79.33;101259.16;6271272;28;20056;-73
2022/08/03 08:00:19;;;;;;;3.05;1.27;;;;;;;23.18;78.20;101259.53;6271196;28;20064;-73
2022/08/03 08:03:20;;;;;;;1.35;0.90;;;;;;;23.23;78.03;101265.28;6271109;28;20451;-73
2022/08/03 08:06:23;;;;;;;1.42;1.10;;;;;;;23.40;76.27;101265.47;6271120;28;20045;-72
2022/08/03 08:09:24;;;;;;;1.00;0.90;;;;;;;23.41;77.37;101259.94;6271446;28;20049;-73
2022/08/03 08:12:26;;;;;;;2.95;1.48;;;;;;;23.46;76.91;101263.00;6270912;28;20045;-73
2022/08/03 08:15:27;;;;;;;3.05;1.33;;;;;;;23.55;76.19;101262.09;6270996;28;20049;-73
2022/08/03 08:18:29;;;;;;;1.30;1.02;;;;;;;23.66;75.93;101262.88;6270953;28;20432;-73
2022/08/03 08:21:31;;;;;;;2.78;1.27;;;;;;;23.67;76.38;101261.91;6270712;28;20045;-73
2022/08/03 08:24:33;;;;;;;2.17;1.05;;;;;;;23.68;76.81;101268.94;6270658;28;20060;-74
2022/08/03 08:27:41;;;;;;;2.13;1.10;;;;;;;23.71;77.83;101265.94;6272595;28;20055;-73
2022/08/03 08:30:43;;;;;;;3.97;1.10;;;;;;;23.94;74.43;101255.56;6295556;28;20455;-73
2022/08/03 08:33:44;;;;;;;1.70;0.90;;;;;;;24.04;72.70;101261.69;6295672;28;20052;-73
2022/08/03 08:36:47;;;;;;;2.78;1.73;;;;;;;24.02;73.43;101261.81;6295688;28;20052;-74
2022/08/03 08:39:48;;;;;;;3.92;1.35;;;;;;;24.41;70.13;101269.50;6296063;28;20053;-73
2022/08/03 08:42:50;;;;;;;1.50;0.80;;;;;;;24.53;69.79;101257.50;6296072;28;20045;-74
2022/08/03 08:45:53;;;;;;;2.10;0.82;;;;;;;24.57;69.26;101254.47;6295276;28;20415;-73
2022/08/03 08:48:56;;;;;;;1.20;0.95;;;;;;;24.61;70.95;101263.88;6295998;28;20056;-74
2022/08/03 08:51:59;;;;;;;5.90;0.85;;;;;;;24.53;71.86;101256.66;6299195;28;20404;-73
2022/08/03 08:55:03;;;;;;;1.98;0.75;;;;;;;24.63;71.45;101256.53;6299918;28;20511;-73
2022/08/03 08:58:06;;;;;;;0.50;0.50;;;;;;;24.72;70.25;101250.19;6299857;28;20111;-74
2022/08/03 09:01:07;;;;;;;2.00;0.98;;;;;;;24.90;67.65;101248.22;6299473;28;20044;-73
2022/08/03 09:04:09;;;;;;;2.40;0.88;;;;;;;24.95;69.79;101264.72;6299724;28;20059;-73
2022/08/03 09:07:12;;;;;;;1.15;0.93;;;;;;;24.94;68.57;101254.97;6299949;28;20045;-73
2022/08/03 09:10:17;;;;;;;4.13;1.00;;;;;;;25.03;68.58;101256.69;6299733;28;20059;-73
2022/08/03 09:13:19;;;;;;;1.50;1.13;;;;;;;24.96;67.30;101254.78;6295782;28;20040;-73
2022/08/03 09:16:22;;;;;;;2.67;1.00;;;;;;;24.91;68.90;101257.97;6299039;28;20056;-73
2022/08/03 09:19:23;;;;;;;1.70;0.90;;;;;;;25.00;68.27;101253.47;6299553;28;20041;-74
2022/08/03 09:22:28;;;;;;;1.10;1.00;;;;;;;24.98;68.43;101253.63;6299647;28;20044;-74
2022/08/03 09:25:31;;;;;;;1.27;0.90;;;;;;;25.10;68.07;101258.72;6299658;28;20075;-73
2022/08/03 09:28:35;;;;;;;0.68;0.52;;;;;;;25.21;67.85;101256.59;6297121;28;20041;-74
2022/08/03 09:31:38;;;;;;;1.23;0.75;;;;;;;25.14;67.80;101255.53;6299137;28;20492;-74
2022/08/03 09:34:39;;;;;;;1.15;0.75;;;;;;;25.18;67.86;101251.53;6299480;28;20519;-73
2022/08/03 09:37:42;;;;;;;2.10;0.73;;;;;;;25.30;66.70;101258.28;6299484;28;20055;-73
2022/08/03 09:40:45;;;;;;;2.63;0.80;;;;;;;25.41;66.18;101258.97;6299307;28;20055;-74
2022/08/03 09:43:46;;;;;;;4.00;0.90;;;;;;;25.32;67.73;101257.28;6298649;28;20507;-75
2022/08/03 09:46:49;;;;;;;1.40;0.88;;;;;;;25.34;67.15;101248.00;6299036;28;20424;-75
2022/08/03 09:49:57;;;;;;;3.65;0.80;;;;;;;25.51;68.22;101249.72;6298663;28;20480;-75
2022/08/03 09:53:02;;;;;;;1.90;0.90;;;;;;;25.82;65.87;101242.88;6298895;28;20048;-73
2022/08/03 09:56:04;;;;;;;1.05;0.95;;;;;;;25.87;65.63;101248.56;6298372;28;20419;-74
2022/08/03 09:59:05;;;;;;;1.58;0.88;;;;;;;26.12;63.17;101250.25;6298685;28;20056;-73
2022/08/03 10:02:20;;;;;;;6.55;1.40;;;;;;;26.09;64.39;101237.09;6298058;28;20519;-73
2022/08/03 10:05:32;;;;;;;0.88;0.73;;;;;;;26.03;64.64;101243.19;6297651;28;20056;-74
2022/08/03 10:08:35;;;;;;;1.27;1.17;;;;;;;26.10;65.72;101233.38;6311508;28;20052;-74
2022/08/03 10:11:37;;;;;;;3.60;1.10;;;;;;;26.19;65.86;101243.13;6298633;28;20052;-74
2022/08/03 10:14:40;;;;;;;3.60;0.88;;;;;;;26.39;62.65;101234.66;6306113;28;20045;-74
2022/08/03 10:17:42;;;;;;;1.75;0.90;;;;;;;26.29;62.94;101238.38;6273357;28;20174;-74
2022/08/03 10:20:46;;;;;;;1.33;0.95;;;;;;;26.30;63.26;101228.47;6273149;28;20051;-73
2022/08/03 10:23:53;;;;;;;1.05;0.95;;;;;;;26.41;63.10;101230.78;6288856;28;20040;-73
2022/08/03 10:27:01;;;;;;;7.47;1.30;;;;;;;26.45;63.03;101223.22;6312547;28;20055;-74
2022/08/03 10:30:06;;;;;;;3.55;1.15;;;;;;;26.43;63.01;101230.59;6298179;28;20048;-72
2022/08/03 10:33:13;;;;;;;2.83;0.80;;;;;;;26.44;63.74;101233.19;6297845;28;20052;-74
2022/08/03 10:36:15;;;;;;;1.05;0.70;;;;;;;26.45;62.73;101220.53;6297220;28;20071;-73
2022/08/03 10:39:21;;;;;;;1.65;0.90;;;;;;;26.56;62.21;101220.16;6297620;28;20540;-75
2022/08/03 10:42:24;;;;;;;1.20;0.77;;;;;;;26.71;62.06;101231.06;6297490;28;20048;-73
2022/08/03 10:45:27;;;;;;;2.20;1.10;;;;;;;26.76;62.08;101201.69;6294298;28;20048;-74
2022/08/03 10:48:31;;;;;;;1.08;0.98;;;;;;;26.87;62.66;101213.94;6298550;28;20550;-74
2022/08/03 10:51:32;;;;;;;2.72;1.00;;;;;;;26.96;62.53;101213.72;6311736;28;20055;-74
2022/08/03 10:58:02;;;;;;;2.03;0.80;;;;;;;27.12;60.38;101212.81;6322405;28;20052;-75
2022/08/03 11:01:04;;;;;;;1.60;0.93;;;;;;;27.26;59.62;101222.00;6322228;28;20943;-74
2022/08/03 11:04:17;;;;;;;2.35;0.85;;;;;;;27.31;58.83;101225.00;6306919;28;20581;-73
2022/08/03 11:07:20;;;;;;;2.60;1.10;;;;;;;27.51;56.56;101209.97;6292545;28;20044;-75
2022/08/03 11:10:31;;;;;;;2.28;1.05;;;;;;;27.47;58.86;101197.84;6296808;28;20048;-75
2022/08/03 11:13:33;;;;;;;1.38;0.68;;;;;;;27.72;59.80;101206.63;6296073;28;20561;-75
2022/08/03 11:16:36;;;;;;;2.55;0.80;;;;;;;27.94;55.48;101210.31;6296858;28;20514;-75
2022/08/03 11:19:44;;;;;;;1.42;0.68;;;;;;;27.94;55.24;101201.38;6297036;28;20055;-73
2022/08/03 11:22:49;;;;;;;3.33;1.23;;;;;;;27.88;56.12;101205.63;6296890;28;20044;-74
2022/08/03 11:26:26;;;;;;;1.65;0.80;;;;;;;27.97;55.34;101200.97;6296668;28;20511;-74
2022/08/03 11:29:29;;;;;;;1.30;1.20;;;;;;;28.08;55.81;101197.84;6219604;28;20066;-74
2022/08/03 11:33:08;;;;;;;2.13;0.95;;;;;;;28.22;56.97;101188.06;6215090;28;20050;-74
2022/08/03 11:36:09;;;;;;;0.65;0.52;;;;;;;28.53;55.21;101193.28;6298231;28;20056;-74
2022/08/03 11:39:14;;;;;;;1.40;0.88;;;;;;;28.89;53.29;101195.13;6295351;28;20060;-74
2022/08/03 11:42:45;;;;;;;0.75;0.52;;;;;;;29.11;51.91;101191.47;6299116;28;20412;-73
2022/08/03 11:45:57;;;;;;;0.82;0.70;;;;;;;29.22;52.02;101195.53;6291334;28;20055;-74
2022/08/03 11:49:05;;;;;;;2.60;0.80;;;;;;;29.30;50.68;101190.84;6302888;28;20048;-74
2022/08/03 11:52:08;;;;;;;1.73;0.80;;;;;;;29.47;51.63;101183.25;6308156;28;20078;-74
2022/08/03 11:55:11;;;;;;;2.25;1.17;;;;;;;29.71;51.06;101184.75;6305675;28;20687;-73
2022/08/03 11:58:18;;;;;;;1.60;1.00;;;;;;;29.64;49.64;101180.31;6296122;28;20059;-75
2022/08/03 12:01:21;;;;;;;3.20;0.93;;;;;;;29.48;50.47;101184.97;6282988;28;20045;-74
2022/08/03 12:04:22;;;;;;;2.20;0.90;;;;;;;29.47;50.15;101190.53;6279238;28;20492;-74
2022/08/03 12:07:26;;;;;;;0.85;0.70;;;;;;;29.75;49.51;101188.75;6273744;28;20049;-73
2022/08/03 12:10:28;;;;;;;1.38;0.95;;;;;;;30.08;50.24;101197.09;6279629;28;20041;-74
2022/08/03 12:13:38;;;;;;;1.73;0.93;;;;;;;30.30;47.85;101187.03;6281912;28;20137;-72
2022/08/03 12:16:39;;;;;;;1.95;0.88;;;;;;;30.54;48.00;101182.97;6294025;28;20052;-74
2022/08/03 12:19:44;;;;;;;4.10;1.15;;;;;;;30.81;48.57;101181.22;6293184;28;20044;-74
2022/08/03 12:22:45;;;;;;;2.47;0.90;;;;;;;30.87;46.08;101176.84;6295928;28;20048;-75
2022/08/03 12:25:47;;;;;;;1.40;0.90;;;;;;;31.05;46.80;101171.66;6299887;28;20055;-74
2022/08/03 12:28:50;;;;;;;2.10;0.77;;;;;;;31.19;44.21;101169.78;6290194;28;20049;-75
2022/08/03 12:31:51;;;;;;;3.13;0.82;;;;;;;31.30;44.65;101163.78;6308220;28;20056;-75
2022/08/03 12:34:54;;;;;;;1.98;1.00;;;;;;;31.34;44.45;101164.22;6325546;28;20052;-74
2022/08/03 12:37:57;;;;;;;0.75;0.70;;;;;;;31.46;43.71;101167.97;6307552;28;20079;-74
2022/08/03 12:41:00;;;;;;;1.85;0.90;;;;;;;31.47;44.44;101174.22;6300261;28;20048;-74
2022/08/03 12:44:05;;;;;;;1.85;0.80;;;;;;;31.65;44.67;101170.88;6293129;28;20508;-75
2022/08/03 12:47:09;;;;;;;1.33;0.70;;;;;;;31.83;44.66;101176.53;6294359;28;20531;-74
2022/08/03 12:50:24;;;;;;;2.28;1.35;;;;;;;32.02;43.04;101172.97;6287903;28;20119;-74
2022/08/03 12:53:29;;;;;;;1.10;0.85;;;;;;;32.29;43.91;101161.97;6300063;28;20123;-75
2022/08/03 12:56:30;;;;;;;1.73;1.05;;;;;;;32.44;43.54;101159.03;6298398;28;20400;-74
2022/08/03 12:59:34;;;;;;;1.00;0.82;;;;;;;32.52;42.26;101167.78;6312860;28;20040;-76
2022/08/03 13:02:36;;;;;;;1.88;0.93;;;;;;;32.43;40.72;101158.22;6295979;28;20045;-77
2022/08/03 13:05:43;;;;;;;2.28;0.90;;;;;;;31.91;40.59;101159.16;6294423;28;20056;-77
2022/08/03 13:08:46;;;;;;;1.50;0.70;;;;;;;31.93;40.56;101154.34;6300532;28;20049;-76
2022/08/03 13:12:04;;;;;;;0.77;0.60;;;;;;;32.27;40.53;101159.47;6299778;28;20054;-76
2022/08/03 13:15:07;;;;;;;4.77;0.90;;;;;;;32.56;39.73;101155.41;6299497;28;20055;-76
2022/08/03 13:18:09;;;;;;;1.45;0.85;;;;;;;32.83;41.33;101153.34;6295888;28;20307;-75
2022/08/03 13:21:10;;;;;;;2.22;0.73;;;;;;;33.08;38.47;101149.91;6301899;28;20052;-77
2022/08/03 13:24:11;;;;;;;4.50;1.88;;;;;;;33.16;39.73;101144.19;6315879;28;20044;-75
2022/08/03 13:27:14;;;;;;;1.88;0.80;;;;;;;33.38;39.32;101147.31;6313856;28;20051;-77
2022/08/03 13:30:16;;;;;;;0.95;0.70;;;;;;;33.41;38.34;101152.34;6299502;28;20052;-77
2022/08/03 13:33:18;;;;;;;0.95;0.70;;;;;;;33.44;38.27;101151.13;6299427;28;20048;-77
2022/08/03 13:36:19;;;;;;;1.58;1.00;;;;;;;33.41;37.99;101144.16;6298273;28;20048;-77
2022/08/03 13:39:22;;;;;;;1.40;0.70;;;;;;;33.26;39.33;101139.06;6299004;28;20135;-76
2022/08/03 13:42:23;;;;;;;0.90;0.60;;;;;;;33.28;38.46;101144.28;6299015;28;20505;-76
2022/08/03 13:45:26;;;;;;;1.00;0.63;;;;;;;33.48;37.16;101144.16;6298613;28;20056;-76
2022/08/03 13:48:27;;;;;;;0.90;0.50;;;;;;;33.71;37.35;101143.53;6299057;28;20052;-75
2022/08/03 13:51:29;;;;;;;1.48;0.85;;;;;;;33.87;35.08;101137.47;6298561;28;20466;-76
2022/08/03 13:54:31;;;;;;;1.90;1.08;;;;;;;33.74;35.03;101132.16;6297925;28;20052;-76
2022/08/03 13:57:33;;;;;;;1.73;0.80;;;;;;;33.31;34.37;101127.50;6298252;28;20060;-76
2022/08/03 14:00:36;;;;;;;1.42;0.70;;;;;;;33.28;35.36;101128.75;6297763;28;20044;-76
2022/08/03 14:03:37;;;;;;;1.63;0.60;;;;;;;33.25;35.61;101131.13;6297598;28;20049;-78
2022/08/03 14:06:38;;;;;;;1.85;0.88;;;;;;;33.62;35.21;101129.34;6298416;28;20523;-75
2022/08/03 14:09:40;;;;;;;2.40;0.70;;;;;;;33.68;35.92;101128.44;6298780;28;20049;-77
2022/08/03 14:12:41;;;;;;;0.95;0.80;;;;;;;34.02;34.84;101127.06;6298039;28;20052;-75
2022/08/03 14:15:44;;;;;;;1.38;1.05;;;;;;;34.19;34.76;101118.25;6297971;28;20056;-76
2022/08/03 14:18:45;;;;;;;1.45;0.68;;;;;;;34.22;33.27;101118.63;6297877;28;20488;-75
2022/08/03 14:21:47;;;;;;;1.70;0.57;;;;;;;34.30;32.82;101117.47;6297919;28;20585;-75